sensor_id;sensor_type;location;lat;lon;timestamp;P1;durP1;ratioP1;P2;durP2;ratioP2
75358;SDS011;64046;51.978;5.934;2024-01-30T00:01:04;18.83;;;11.65;;
75358;SDS011;64046;51.978;5.934;2024-01-30T00:03:34;17.83;;;11.15;;
75358;SDS011;64046;51.978;5.934;2024-01-30T00:06:07;17.67;;;10.35;;
75358;SDS011;64046;51.978;5.934;2024-01-30T00:08:36;18.55;;;10.18;;
75358;SDS011;64046;51.978;5.934;2024-01-30T00:11:07;20.45;;;11.65;;
75358;SDS011;64046;51.978;5.934;2024-01-30T00:13:36;19.70;;;12.65;;
75358;SDS011;64046;51.978;5.934;2024-01-30T00:16:06;19.35;;;10.80;;
75358;SDS011;64046;51.978;5.934;2024-01-30T00:18:35;19.08;;;12.38;;
75358;SDS011;64046;51.978;5.934;2024-01-30T00:21:12;17.60;;;11.43;;
75358;SDS011;64046;51.978;5.934;2024-01-30T00:23:42;21.50;;;12.10;;
75358;SDS011;64046;51.978;5.934;2024-01-30T00:26:13;17.48;;;10.05;;
75358;SDS011;64046;51.978;5.934;2024-01-30T00:28:44;19.52;;;11.50;;
75358;SDS011;64046;51.978;5.934;2024-01-30T00:31:14;19.85;;;9.88;;
75358;SDS011;64046;51.978;5.934;2024-01-30T00:33:43;19.83;;;10.68;;
75358;SDS011;64046;51.978;5.934;2024-01-30T00:36:18;19.77;;;12.52;;
75358;SDS011;64046;51.978;5.934;2024-01-30T00:38:47;17.42;;;11.07;;
75358;SDS011;64046;51.978;5.934;2024-01-30T00:41:17;17.70;;;10.07;;
75358;SDS011;64046;51.978;5.934;2024-01-30T00:43:47;22.30;;;11.95;;
75358;SDS011;64046;51.978;5.934;2024-01-30T00:46:19;17.40;;;9.93;;
75358;SDS011;64046;51.978;5.934;2024-01-30T00:48:50;14.05;;;9.65;;
75358;SDS011;64046;51.978;5.934;2024-01-30T00:51:22;19.55;;;10.20;;
75358;SDS011;64046;51.978;5.934;2024-01-30T00:53:54;16.15;;;10.50;;
75358;SDS011;64046;51.978;5.934;2024-01-30T00:56:25;17.75;;;11.07;;
75358;SDS011;64046;51.978;5.934;2024-01-30T00:59:00;16.15;;;9.40;;
75358;SDS011;64046;51.978;5.934;2024-01-30T01:01:29;15.93;;;10.05;;
75358;SDS011;64046;51.978;5.934;2024-01-30T01:03:58;15.95;;;10.05;;
75358;SDS011;64046;51.978;5.934;2024-01-30T01:06:30;17.38;;;10.43;;
75358;SDS011;64046;51.978;5.934;2024-01-30T01:09:00;14.05;;;9.13;;
75358;SDS011;64046;51.978;5.934;2024-01-30T01:11:29;12.85;;;8.52;;
75358;SDS011;64046;51.978;5.934;2024-01-30T01:13:59;13.63;;;8.45;;
75358;SDS011;64046;51.978;5.934;2024-01-30T01:16:28;16.83;;;9.90;;
75358;SDS011;64046;51.978;5.934;2024-01-30T01:19:00;14.02;;;8.68;;
75358;SDS011;64046;51.978;5.934;2024-01-30T01:21:34;18.92;;;8.93;;
75358;SDS011;64046;51.978;5.934;2024-01-30T01:24:04;13.82;;;8.77;;
75358;SDS011;64046;51.978;5.934;2024-01-30T01:26:36;13.80;;;9.20;;
75358;SDS011;64046;51.978;5.934;2024-01-30T01:29:07;14.77;;;8.85;;
75358;SDS011;64046;51.978;5.934;2024-01-30T01:31:55;15.82;;;9.98;;
75358;SDS011;64046;51.978;5.934;2024-01-30T01:34:32;17.20;;;10.65;;
75358;SDS011;64046;51.978;5.934;2024-01-30T01:37:07;16.98;;;10.07;;
75358;SDS011;64046;51.978;5.934;2024-01-30T01:39:36;13.85;;;9.40;;
75358;SDS011;64046;51.978;5.934;2024-01-30T01:42:06;18.42;;;10.50;;
75358;SDS011;64046;51.978;5.934;2024-01-30T01:44:35;14.45;;;9.52;;
75358;SDS011;64046;51.978;5.934;2024-01-30T01:47:07;15.45;;;10.00;;
75358;SDS011;64046;51.978;5.934;2024-01-30T01:49:37;12.48;;;8.60;;
75358;SDS011;64046;51.978;5.934;2024-01-30T01:52:11;12.55;;;8.20;;
75358;SDS011;64046;51.978;5.934;2024-01-30T01:54:41;15.13;;;9.95;;
75358;SDS011;64046;51.978;5.934;2024-01-30T01:57:11;14.30;;;8.82;;
75358;SDS011;64046;51.978;5.934;2024-01-30T01:59:45;18.48;;;10.35;;
75358;SDS011;64046;51.978;5.934;2024-01-30T02:02:18;14.35;;;8.85;;
75358;SDS011;64046;51.978;5.934;2024-01-30T02:04:52;18.13;;;9.95;;
75358;SDS011;64046;51.978;5.934;2024-01-30T02:07:26;15.60;;;9.38;;
75358;SDS011;64046;51.978;5.934;2024-01-30T02:09:59;16.17;;;9.90;;
75358;SDS011;64046;51.978;5.934;2024-01-30T02:12:29;15.10;;;8.65;;
75358;SDS011;64046;51.978;5.934;2024-01-30T02:14:59;13.27;;;8.85;;
75358;SDS011;64046;51.978;5.934;2024-01-30T02:17:33;12.57;;;7.72;;
75358;SDS011;64046;51.978;5.934;2024-01-30T02:20:09;12.75;;;7.70;;
75358;SDS011;64046;51.978;5.934;2024-01-30T02:22:42;15.63;;;7.97;;
75358;SDS011;64046;51.978;5.934;2024-01-30T02:25:12;16.40;;;9.52;;
75358;SDS011;64046;51.978;5.934;2024-01-30T02:27:43;14.90;;;8.95;;
75358;SDS011;64046;51.978;5.934;2024-01-30T02:30:15;12.77;;;7.53;;
75358;SDS011;64046;51.978;5.934;2024-01-30T02:32:46;13.32;;;8.07;;
75358;SDS011;64046;51.978;5.934;2024-01-30T02:35:15;13.15;;;7.80;;
75358;SDS011;64046;51.978;5.934;2024-01-30T02:37:47;12.18;;;7.65;;
75358;SDS011;64046;51.978;5.934;2024-01-30T02:40:19;13.68;;;8.60;;
75358;SDS011;64046;51.978;5.934;2024-01-30T02:42:49;11.38;;;7.82;;
75358;SDS011;64046;51.978;5.934;2024-01-30T02:45:20;11.35;;;8.13;;
75358;SDS011;64046;51.978;5.934;2024-01-30T02:47:51;15.48;;;9.07;;
75358;SDS011;64046;51.978;5.934;2024-01-30T02:50:25;14.75;;;9.32;;
75358;SDS011;64046;51.978;5.934;2024-01-30T02:52:59;10.65;;;7.55;;
75358;SDS011;64046;51.978;5.934;2024-01-30T02:55:28;14.45;;;8.25;;
75358;SDS011;64046;51.978;5.934;2024-01-30T02:57:59;13.68;;;7.85;;
75358;SDS011;64046;51.978;5.934;2024-01-30T03:00:29;15.43;;;8.30;;
75358;SDS011;64046;51.978;5.934;2024-01-30T03:03:01;13.50;;;8.52;;
75358;SDS011;64046;51.978;5.934;2024-01-30T03:05:32;10.75;;;6.68;;
75358;SDS011;64046;51.978;5.934;2024-01-30T03:08:06;12.63;;;7.05;;
75358;SDS011;64046;51.978;5.934;2024-01-30T03:10:37;11.25;;;8.35;;
75358;SDS011;64046;51.978;5.934;2024-01-30T03:13:06;10.25;;;7.10;;
75358;SDS011;64046;51.978;5.934;2024-01-30T03:15:37;9.18;;;6.88;;
75358;SDS011;64046;51.978;5.934;2024-01-30T03:18:12;9.68;;;6.57;;
75358;SDS011;64046;51.978;5.934;2024-01-30T03:20:43;11.77;;;7.10;;
75358;SDS011;64046;51.978;5.934;2024-01-30T03:23:17;11.18;;;7.82;;
75358;SDS011;64046;51.978;5.934;2024-01-30T03:25:51;10.50;;;7.20;;
75358;SDS011;64046;51.978;5.934;2024-01-30T03:28:21;13.18;;;7.00;;
75358;SDS011;64046;51.978;5.934;2024-01-30T03:30:51;10.18;;;7.22;;
75358;SDS011;64046;51.978;5.934;2024-01-30T03:33:20;14.38;;;8.55;;
75358;SDS011;64046;51.978;5.934;2024-01-30T03:35:50;16.30;;;8.18;;
75358;SDS011;64046;51.978;5.934;2024-01-30T03:38:22;12.82;;;8.07;;
75358;SDS011;64046;51.978;5.934;2024-01-30T03:40:54;16.52;;;9.55;;
75358;SDS011;64046;51.978;5.934;2024-01-30T03:43:24;15.82;;;8.68;;
75358;SDS011;64046;51.978;5.934;2024-01-30T03:45:53;11.38;;;7.20;;
75358;SDS011;64046;51.978;5.934;2024-01-30T03:48:30;13.43;;;7.57;;
75358;SDS011;64046;51.978;5.934;2024-01-30T03:51:00;13.43;;;8.20;;
75358;SDS011;64046;51.978;5.934;2024-01-30T03:53:34;12.88;;;8.23;;
75358;SDS011;64046;51.978;5.934;2024-01-30T03:56:04;11.00;;;7.57;;
75358;SDS011;64046;51.978;5.934;2024-01-30T03:58:35;13.45;;;7.95;;
75358;SDS011;64046;51.978;5.934;2024-01-30T04:01:04;10.95;;;6.97;;
75358;SDS011;64046;51.978;5.934;2024-01-30T04:03:34;12.82;;;7.93;;
75358;SDS011;64046;51.978;5.934;2024-01-30T04:06:05;17.45;;;8.85;;
75358;SDS011;64046;51.978;5.934;2024-01-30T04:08:37;10.38;;;7.00;;
75358;SDS011;64046;51.978;5.934;2024-01-30T04:11:09;13.43;;;8.35;;
75358;SDS011;64046;51.978;5.934;2024-01-30T04:13:38;14.35;;;7.78;;
75358;SDS011;64046;51.978;5.934;2024-01-30T04:16:18;15.43;;;7.70;;
75358;SDS011;64046;51.978;5.934;2024-01-30T04:18:49;13.10;;;7.03;;
75358;SDS011;64046;51.978;5.934;2024-01-30T04:21:20;10.95;;;7.28;;
75358;SDS011;64046;51.978;5.934;2024-01-30T04:23:53;10.13;;;6.70;;
75358;SDS011;64046;51.978;5.934;2024-01-30T04:26:22;10.88;;;7.00;;
75358;SDS011;64046;51.978;5.934;2024-01-30T04:28:52;13.93;;;7.75;;
75358;SDS011;64046;51.978;5.934;2024-01-30T04:31:23;11.68;;;6.57;;
75358;SDS011;64046;51.978;5.934;2024-01-30T04:33:53;12.68;;;7.78;;
75358;SDS011;64046;51.978;5.934;2024-01-30T04:36:23;13.98;;;8.30;;
75358;SDS011;64046;51.978;5.934;2024-01-30T04:38:56;11.57;;;7.68;;
75358;SDS011;64046;51.978;5.934;2024-01-30T04:41:27;12.48;;;7.20;;
75358;SDS011;64046;51.978;5.934;2024-01-30T04:43:59;9.98;;;7.00;;
75358;SDS011;64046;51.978;5.934;2024-01-30T04:46:29;11.88;;;7.53;;
75358;SDS011;64046;51.978;5.934;2024-01-30T04:49:00;10.30;;;6.90;;
75358;SDS011;64046;51.978;5.934;2024-01-30T04:51:30;12.13;;;7.25;;
75358;SDS011;64046;51.978;5.934;2024-01-30T04:54:02;11.85;;;7.30;;
75358;SDS011;64046;51.978;5.934;2024-01-30T04:56:32;13.70;;;7.55;;
75358;SDS011;64046;51.978;5.934;2024-01-30T04:59:05;13.38;;;7.32;;
75358;SDS011;64046;51.978;5.934;2024-01-30T05:01:37;10.27;;;6.93;;
75358;SDS011;64046;51.978;5.934;2024-01-30T05:04:07;12.32;;;8.05;;
75358;SDS011;64046;51.978;5.934;2024-01-30T05:06:40;10.15;;;6.75;;
75358;SDS011;64046;51.978;5.934;2024-01-30T05:09:12;12.77;;;7.50;;
75358;SDS011;64046;51.978;5.934;2024-01-30T05:11:41;10.82;;;7.53;;
75358;SDS011;64046;51.978;5.934;2024-01-30T05:14:13;9.32;;;6.70;;
75358;SDS011;64046;51.978;5.934;2024-01-30T05:16:44;15.10;;;7.32;;
75358;SDS011;64046;51.978;5.934;2024-01-30T05:19:16;14.48;;;8.35;;
75358;SDS011;64046;51.978;5.934;2024-01-30T05:21:47;12.50;;;7.78;;
75358;SDS011;64046;51.978;5.934;2024-01-30T05:24:20;17.08;;;9.23;;
75358;SDS011;64046;51.978;5.934;2024-01-30T05:26:49;11.70;;;7.35;;
75358;SDS011;64046;51.978;5.934;2024-01-30T05:29:18;12.80;;;7.65;;
75358;SDS011;64046;51.978;5.934;2024-01-30T05:31:55;13.15;;;7.90;;
75358;SDS011;64046;51.978;5.934;2024-01-30T05:34:24;10.10;;;7.10;;
75358;SDS011;64046;51.978;5.934;2024-01-30T05:36:54;15.65;;;9.15;;
75358;SDS011;64046;51.978;5.934;2024-01-30T05:39:26;14.88;;;8.88;;
75358;SDS011;64046;51.978;5.934;2024-01-30T05:41:58;13.10;;;7.72;;
75358;SDS011;64046;51.978;5.934;2024-01-30T05:44:29;14.90;;;7.72;;
75358;SDS011;64046;51.978;5.934;2024-01-30T05:46:59;14.95;;;6.97;;
75358;SDS011;64046;51.978;5.934;2024-01-30T05:49:30;8.77;;;6.30;;
75358;SDS011;64046;51.978;5.934;2024-01-30T05:52:10;11.75;;;7.65;;
75358;SDS011;64046;51.978;5.934;2024-01-30T05:54:43;9.05;;;6.63;;
75358;SDS011;64046;51.978;5.934;2024-01-30T05:57:13;12.68;;;7.63;;
75358;SDS011;64046;51.978;5.934;2024-01-30T05:59:44;11.88;;;7.18;;
75358;SDS011;64046;51.978;5.934;2024-01-30T06:02:14;11.57;;;6.35;;
75358;SDS011;64046;51.978;5.934;2024-01-30T06:04:44;13.80;;;8.70;;
75358;SDS011;64046;51.978;5.934;2024-01-30T06:07:17;14.80;;;7.63;;
75358;SDS011;64046;51.978;5.934;2024-01-30T06:09:50;16.15;;;8.68;;
75358;SDS011;64046;51.978;5.934;2024-01-30T06:12:21;14.27;;;7.97;;
75358;SDS011;64046;51.978;5.934;2024-01-30T06:14:52;15.80;;;9.88;;
75358;SDS011;64046;51.978;5.934;2024-01-30T06:17:22;17.70;;;9.90;;
75358;SDS011;64046;51.978;5.934;2024-01-30T06:19:52;14.77;;;8.70;;
75358;SDS011;64046;51.978;5.934;2024-01-30T06:22:24;18.98;;;9.77;;
75358;SDS011;64046;51.978;5.934;2024-01-30T06:24:57;12.43;;;7.75;;
75358;SDS011;64046;51.978;5.934;2024-01-30T06:27:28;11.60;;;7.35;;
75358;SDS011;64046;51.978;5.934;2024-01-30T06:29:58;17.58;;;8.90;;
75358;SDS011;64046;51.978;5.934;2024-01-30T06:32:29;13.40;;;8.25;;
75358;SDS011;64046;51.978;5.934;2024-01-30T06:35:00;13.30;;;7.80;;
75358;SDS011;64046;51.978;5.934;2024-01-30T06:37:29;14.13;;;9.80;;
75358;SDS011;64046;51.978;5.934;2024-01-30T06:40:01;13.55;;;8.98;;
75358;SDS011;64046;51.978;5.934;2024-01-30T06:42:32;13.45;;;8.18;;
75358;SDS011;64046;51.978;5.934;2024-01-30T06:45:02;11.27;;;7.72;;
75358;SDS011;64046;51.978;5.934;2024-01-30T06:47:33;13.43;;;7.88;;
75358;SDS011;64046;51.978;5.934;2024-01-30T06:50:03;12.60;;;7.82;;
75358;SDS011;64046;51.978;5.934;2024-01-30T06:52:34;12.75;;;7.25;;
75358;SDS011;64046;51.978;5.934;2024-01-30T06:55:07;11.98;;;7.55;;
75358;SDS011;64046;51.978;5.934;2024-01-30T06:57:39;10.52;;;7.10;;
75358;SDS011;64046;51.978;5.934;2024-01-30T07:00:09;16.25;;;8.35;;
75358;SDS011;64046;51.978;5.934;2024-01-30T07:02:44;12.68;;;8.00;;
75358;SDS011;64046;51.978;5.934;2024-01-30T07:05:17;12.45;;;7.97;;
75358;SDS011;64046;51.978;5.934;2024-01-30T07:07:47;12.57;;;7.80;;
75358;SDS011;64046;51.978;5.934;2024-01-30T07:10:19;14.40;;;8.07;;
75358;SDS011;64046;51.978;5.934;2024-01-30T07:12:49;19.02;;;9.35;;
75358;SDS011;64046;51.978;5.934;2024-01-30T07:15:18;12.45;;;7.55;;
75358;SDS011;64046;51.978;5.934;2024-01-30T07:17:48;15.43;;;7.40;;
75358;SDS011;64046;51.978;5.934;2024-01-30T07:20:17;12.13;;;7.00;;
75358;SDS011;64046;51.978;5.934;2024-01-30T07:22:49;13.65;;;6.28;;
75358;SDS011;64046;51.978;5.934;2024-01-30T07:25:21;12.38;;;7.53;;
75358;SDS011;64046;51.978;5.934;2024-01-30T07:27:57;13.85;;;6.88;;
75358;SDS011;64046;51.978;5.934;2024-01-30T07:30:29;32.90;;;14.43;;
75358;SDS011;64046;51.978;5.934;2024-01-30T07:32:58;18.55;;;9.68;;
75358;SDS011;64046;51.978;5.934;2024-01-30T07:35:28;13.10;;;7.30;;
75358;SDS011;64046;51.978;5.934;2024-01-30T07:37:57;11.60;;;6.18;;
75358;SDS011;64046;51.978;5.934;2024-01-30T07:40:29;13.80;;;6.70;;
75358;SDS011;64046;51.978;5.934;2024-01-30T07:42:59;13.02;;;6.55;;
75358;SDS011;64046;51.978;5.934;2024-01-30T07:45:29;12.85;;;6.63;;
75358;SDS011;64046;51.978;5.934;2024-01-30T07:48:00;10.35;;;5.55;;
75358;SDS011;64046;51.978;5.934;2024-01-30T07:50:31;9.38;;;5.85;;
75358;SDS011;64046;51.978;5.934;2024-01-30T07:53:01;10.88;;;5.28;;
75358;SDS011;64046;51.978;5.934;2024-01-30T07:55:36;12.10;;;5.80;;
75358;SDS011;64046;51.978;5.934;2024-01-30T07:58:06;7.32;;;4.90;;
75358;SDS011;64046;51.978;5.934;2024-01-30T08:00:36;8.13;;;5.05;;
75358;SDS011;64046;51.978;5.934;2024-01-30T08:03:06;10.20;;;5.55;;
75358;SDS011;64046;51.978;5.934;2024-01-30T08:05:37;9.13;;;5.40;;
75358;SDS011;64046;51.978;5.934;2024-01-30T08:08:10;10.20;;;4.95;;
75358;SDS011;64046;51.978;5.934;2024-01-30T08:10:43;12.70;;;7.22;;
75358;SDS011;64046;51.978;5.934;2024-01-30T08:13:14;10.95;;;5.88;;
75358;SDS011;64046;51.978;5.934;2024-01-30T08:15:45;9.43;;;6.13;;
75358;SDS011;64046;51.978;5.934;2024-01-30T08:18:16;8.38;;;5.45;;
75358;SDS011;64046;51.978;5.934;2024-01-30T08:20:45;9.13;;;5.75;;
75358;SDS011;64046;51.978;5.934;2024-01-30T08:23:16;8.38;;;5.43;;
75358;SDS011;64046;51.978;5.934;2024-01-30T08:25:48;7.72;;;5.45;;
75358;SDS011;64046;51.978;5.934;2024-01-30T08:28:18;9.95;;;5.78;;
75358;SDS011;64046;51.978;5.934;2024-01-30T08:30:49;10.35;;;5.50;;
75358;SDS011;64046;51.978;5.934;2024-01-30T08:33:19;9.23;;;5.03;;
75358;SDS011;64046;51.978;5.934;2024-01-30T08:35:50;7.65;;;5.40;;
75358;SDS011;64046;51.978;5.934;2024-01-30T08:38:20;8.70;;;5.32;;
75358;SDS011;64046;51.978;5.934;2024-01-30T08:40:52;7.65;;;5.10;;
75358;SDS011;64046;51.978;5.934;2024-01-30T08:43:23;8.35;;;5.03;;
75358;SDS011;64046;51.978;5.934;2024-01-30T08:45:53;8.80;;;5.45;;
75358;SDS011;64046;51.978;5.934;2024-01-30T08:48:23;9.20;;;6.28;;
75358;SDS011;64046;51.978;5.934;2024-01-30T08:50:52;8.90;;;5.53;;
75358;SDS011;64046;51.978;5.934;2024-01-30T08:53:23;9.15;;;5.30;;
75358;SDS011;64046;51.978;5.934;2024-01-30T08:55:56;9.18;;;5.45;;
75358;SDS011;64046;51.978;5.934;2024-01-30T08:58:28;7.10;;;4.80;;
75358;SDS011;64046;51.978;5.934;2024-01-30T09:01:01;11.48;;;5.65;;
75358;SDS011;64046;51.978;5.934;2024-01-30T09:03:35;11.65;;;6.50;;
75358;SDS011;64046;51.978;5.934;2024-01-30T09:06:08;10.07;;;5.68;;
75358;SDS011;64046;51.978;5.934;2024-01-30T09:08:38;9.02;;;5.38;;
75358;SDS011;64046;51.978;5.934;2024-01-30T09:11:15;13.13;;;5.90;;
75358;SDS011;64046;51.978;5.934;2024-01-30T09:13:46;7.95;;;5.65;;
75358;SDS011;64046;51.978;5.934;2024-01-30T09:16:17;10.57;;;5.30;;
75358;SDS011;64046;51.978;5.934;2024-01-30T09:18:49;11.75;;;5.65;;
75358;SDS011;64046;51.978;5.934;2024-01-30T09:21:21;9.70;;;5.63;;
75358;SDS011;64046;51.978;5.934;2024-01-30T09:23:51;10.52;;;6.32;;
75358;SDS011;64046;51.978;5.934;2024-01-30T09:26:25;9.45;;;6.22;;
75358;SDS011;64046;51.978;5.934;2024-01-30T09:28:55;11.07;;;5.78;;
75358;SDS011;64046;51.978;5.934;2024-01-30T09:31:24;9.15;;;5.85;;
75358;SDS011;64046;51.978;5.934;2024-01-30T09:33:55;8.98;;;5.97;;
75358;SDS011;64046;51.978;5.934;2024-01-30T09:36:31;8.55;;;5.32;;
75358;SDS011;64046;51.978;5.934;2024-01-30T09:39:08;10.70;;;5.93;;
75358;SDS011;64046;51.978;5.934;2024-01-30T09:41:44;9.25;;;5.95;;
75358;SDS011;64046;51.978;5.934;2024-01-30T09:44:18;9.57;;;5.88;;
75358;SDS011;64046;51.978;5.934;2024-01-30T09:46:49;10.25;;;5.93;;
75358;SDS011;64046;51.978;5.934;2024-01-30T09:49:20;13.40;;;6.15;;
75358;SDS011;64046;51.978;5.934;2024-01-30T09:51:51;9.57;;;6.63;;
75358;SDS011;64046;51.978;5.934;2024-01-30T09:54:23;8.95;;;5.88;;
75358;SDS011;64046;51.978;5.934;2024-01-30T09:56:57;10.73;;;6.50;;
75358;SDS011;64046;51.978;5.934;2024-01-30T09:59:27;10.13;;;6.07;;
75358;SDS011;64046;51.978;5.934;2024-01-30T10:01:58;11.30;;;5.90;;
75358;SDS011;64046;51.978;5.934;2024-01-30T10:04:29;8.18;;;5.65;;
75358;SDS011;64046;51.978;5.934;2024-01-30T10:07:02;12.23;;;6.80;;
75358;SDS011;64046;51.978;5.934;2024-01-30T10:09:32;9.23;;;5.53;;
75358;SDS011;64046;51.978;5.934;2024-01-30T10:12:07;9.75;;;6.35;;
75358;SDS011;64046;51.978;5.934;2024-01-30T10:14:38;11.98;;;6.25;;
75358;SDS011;64046;51.978;5.934;2024-01-30T10:17:10;9.55;;;5.72;;
75358;SDS011;64046;51.978;5.934;2024-01-30T10:19:40;12.02;;;6.47;;
75358;SDS011;64046;51.978;5.934;2024-01-30T10:22:10;11.73;;;7.13;;
75358;SDS011;64046;51.978;5.934;2024-01-30T10:24:42;13.23;;;7.25;;
75358;SDS011;64046;51.978;5.934;2024-01-30T10:27:14;9.75;;;5.72;;
75358;SDS011;64046;51.978;5.934;2024-01-30T10:29:48;9.23;;;5.63;;
75358;SDS011;64046;51.978;5.934;2024-01-30T10:32:17;12.25;;;6.18;;
75358;SDS011;64046;51.978;5.934;2024-01-30T10:34:48;12.45;;;6.70;;
75358;SDS011;64046;51.978;5.934;2024-01-30T10:37:17;11.50;;;6.20;;
75358;SDS011;64046;51.978;5.934;2024-01-30T10:39:53;11.88;;;6.38;;
75358;SDS011;64046;51.978;5.934;2024-01-30T10:42:31;10.80;;;5.07;;
75358;SDS011;64046;51.978;5.934;2024-01-30T10:45:06;10.10;;;6.60;;
75358;SDS011;64046;51.978;5.934;2024-01-30T10:47:39;11.07;;;6.22;;
75358;SDS011;64046;51.978;5.934;2024-01-30T10:50:12;10.82;;;6.20;;
75358;SDS011;64046;51.978;5.934;2024-01-30T10:52:42;12.70;;;6.70;;
75358;SDS011;64046;51.978;5.934;2024-01-30T10:55:17;11.98;;;6.53;;
75358;SDS011;64046;51.978;5.934;2024-01-30T10:57:51;16.25;;;6.63;;
75358;SDS011;64046;51.978;5.934;2024-01-30T11:00:20;12.63;;;8.05;;
75358;SDS011;64046;51.978;5.934;2024-01-30T11:02:52;11.10;;;6.75;;
75358;SDS011;64046;51.978;5.934;2024-01-30T11:05:24;14.32;;;6.65;;
75358;SDS011;64046;51.978;5.934;2024-01-30T11:07:57;11.82;;;7.97;;
75358;SDS011;64046;51.978;5.934;2024-01-30T11:10:27;13.20;;;7.00;;
75358;SDS011;64046;51.978;5.934;2024-01-30T11:13:00;13.68;;;6.43;;
75358;SDS011;64046;51.978;5.934;2024-01-30T11:15:39;10.45;;;5.65;;
75358;SDS011;64046;51.978;5.934;2024-01-30T11:18:09;12.55;;;6.53;;
75358;SDS011;64046;51.978;5.934;2024-01-30T11:20:39;11.90;;;6.07;;
75358;SDS011;64046;51.978;5.934;2024-01-30T11:23:22;13.10;;;7.68;;
75358;SDS011;64046;51.978;5.934;2024-01-30T11:25:52;15.65;;;7.15;;
75358;SDS011;64046;51.978;5.934;2024-01-30T11:28:24;12.43;;;6.85;;
75358;SDS011;64046;51.978;5.934;2024-01-30T11:31:05;8.65;;;6.10;;
75358;SDS011;64046;51.978;5.934;2024-01-30T11:33:38;10.93;;;5.72;;
75358;SDS011;64046;51.978;5.934;2024-01-30T11:36:11;13.93;;;5.80;;
75358;SDS011;64046;51.978;5.934;2024-01-30T11:38:43;16.63;;;6.88;;
75358;SDS011;64046;51.978;5.934;2024-01-30T11:41:14;8.57;;;5.68;;
75358;SDS011;64046;51.978;5.934;2024-01-30T11:43:53;9.48;;;5.93;;
75358;SDS011;64046;51.978;5.934;2024-01-30T11:46:24;9.90;;;5.45;;
75358;SDS011;64046;51.978;5.934;2024-01-30T11:48:55;12.98;;;6.25;;
75358;SDS011;64046;51.978;5.934;2024-01-30T11:51:25;10.07;;;5.82;;
75358;SDS011;64046;51.978;5.934;2024-01-30T11:53:57;10.52;;;6.15;;
75358;SDS011;64046;51.978;5.934;2024-01-30T11:56:27;9.40;;;6.50;;
75358;SDS011;64046;51.978;5.934;2024-01-30T11:59:00;13.05;;;6.47;;
75358;SDS011;64046;51.978;5.934;2024-01-30T12:01:30;11.18;;;5.88;;
75358;SDS011;64046;51.978;5.934;2024-01-30T12:04:00;12.70;;;5.88;;
75358;SDS011;64046;51.978;5.934;2024-01-30T12:06:34;9.93;;;5.93;;
75358;SDS011;64046;51.978;5.934;2024-01-30T12:09:07;10.85;;;6.20;;
75358;SDS011;64046;51.978;5.934;2024-01-30T12:11:47;7.75;;;5.80;;
75358;SDS011;64046;51.978;5.934;2024-01-30T12:14:20;10.05;;;6.10;;
75358;SDS011;64046;51.978;5.934;2024-01-30T12:16:53;7.40;;;5.13;;
75358;SDS011;64046;51.978;5.934;2024-01-30T12:19:24;8.02;;;5.20;;
75358;SDS011;64046;51.978;5.934;2024-01-30T12:21:54;8.48;;;5.65;;
75358;SDS011;64046;51.978;5.934;2024-01-30T12:24:26;12.98;;;6.03;;
75358;SDS011;64046;51.978;5.934;2024-01-30T12:26:56;8.95;;;5.03;;
75358;SDS011;64046;51.978;5.934;2024-01-30T12:29:31;9.43;;;6.10;;
75358;SDS011;64046;51.978;5.934;2024-01-30T12:32:04;10.65;;;5.18;;
75358;SDS011;64046;51.978;5.934;2024-01-30T12:34:40;10.23;;;5.55;;
75358;SDS011;64046;51.978;5.934;2024-01-30T12:37:11;8.70;;;6.00;;
75358;SDS011;64046;51.978;5.934;2024-01-30T12:39:51;11.25;;;5.22;;
75358;SDS011;64046;51.978;5.934;2024-01-30T12:42:21;10.20;;;5.20;;
75358;SDS011;64046;51.978;5.934;2024-01-30T12:44:53;10.88;;;5.78;;
75358;SDS011;64046;51.978;5.934;2024-01-30T12:47:26;6.00;;;3.63;;
75358;SDS011;64046;51.978;5.934;2024-01-30T12:49:55;8.95;;;3.45;;
75358;SDS011;64046;51.978;5.934;2024-01-30T12:52:26;6.18;;;3.15;;
75358;SDS011;64046;51.978;5.934;2024-01-30T12:54:56;11.35;;;3.08;;
75358;SDS011;64046;51.978;5.934;2024-01-30T12:57:26;10.45;;;2.90;;
75358;SDS011;64046;51.978;5.934;2024-01-30T12:59:57;9.25;;;3.00;;
75358;SDS011;64046;51.978;5.934;2024-01-30T13:02:27;5.15;;;2.28;;
75358;SDS011;64046;51.978;5.934;2024-01-30T13:05:00;6.45;;;2.75;;
75358;SDS011;64046;51.978;5.934;2024-01-30T13:07:32;6.13;;;2.42;;
75358;SDS011;64046;51.978;5.934;2024-01-30T13:10:01;7.65;;;2.63;;
75358;SDS011;64046;51.978;5.934;2024-01-30T13:12:32;8.85;;;3.08;;
75358;SDS011;64046;51.978;5.934;2024-01-30T13:15:07;9.68;;;2.55;;
75358;SDS011;64046;51.978;5.934;2024-01-30T13:17:39;8.25;;;2.38;;
75358;SDS011;64046;51.978;5.934;2024-01-30T13:20:09;4.85;;;2.10;;
75358;SDS011;64046;51.978;5.934;2024-01-30T13:22:43;5.10;;;2.55;;
75358;SDS011;64046;51.978;5.934;2024-01-30T13:25:12;4.35;;;1.88;;
75358;SDS011;64046;51.978;5.934;2024-01-30T13:27:43;3.88;;;1.65;;
75358;SDS011;64046;51.978;5.934;2024-01-30T13:30:16;3.85;;;1.45;;
75358;SDS011;64046;51.978;5.934;2024-01-30T13:32:45;5.00;;;1.60;;
75358;SDS011;64046;51.978;5.934;2024-01-30T13:35:17;4.68;;;1.63;;
75358;SDS011;64046;51.978;5.934;2024-01-30T13:37:46;2.92;;;1.10;;
75358;SDS011;64046;51.978;5.934;2024-01-30T13:40:18;6.03;;;1.38;;
75358;SDS011;64046;51.978;5.934;2024-01-30T13:42:48;3.22;;;1.27;;
75358;SDS011;64046;51.978;5.934;2024-01-30T13:45:22;3.92;;;1.70;;
75358;SDS011;64046;51.978;5.934;2024-01-30T13:47:52;4.68;;;1.20;;
75358;SDS011;64046;51.978;5.934;2024-01-30T13:50:23;1.98;;;1.40;;
75358;SDS011;64046;51.978;5.934;2024-01-30T13:52:52;4.57;;;1.80;;
75358;SDS011;64046;51.978;5.934;2024-01-30T13:55:24;9.55;;;2.80;;
75358;SDS011;64046;51.978;5.934;2024-01-30T13:57:58;13.98;;;2.83;;
75358;SDS011;64046;51.978;5.934;2024-01-30T14:00:30;9.88;;;2.67;;
75358;SDS011;64046;51.978;5.934;2024-01-30T14:02:59;7.70;;;2.75;;
75358;SDS011;64046;51.978;5.934;2024-01-30T14:05:29;8.27;;;3.08;;
75358;SDS011;64046;51.978;5.934;2024-01-30T14:08:01;15.65;;;3.35;;
75358;SDS011;64046;51.978;5.934;2024-01-30T14:10:37;8.55;;;3.67;;
75358;SDS011;64046;51.978;5.934;2024-01-30T14:13:07;7.63;;;3.42;;
75358;SDS011;64046;51.978;5.934;2024-01-30T14:15:41;6.97;;;4.00;;
75358;SDS011;64046;51.978;5.934;2024-01-30T14:18:11;10.73;;;4.53;;
75358;SDS011;64046;51.978;5.934;2024-01-30T14:20:43;6.97;;;3.85;;
75358;SDS011;64046;51.978;5.934;2024-01-30T14:23:16;8.00;;;4.38;;
75358;SDS011;64046;51.978;5.934;2024-01-30T14:25:47;8.48;;;4.20;;
75358;SDS011;64046;51.978;5.934;2024-01-30T14:28:20;8.38;;;4.50;;
75358;SDS011;64046;51.978;5.934;2024-01-30T14:30:52;8.63;;;3.90;;
75358;SDS011;64046;51.978;5.934;2024-01-30T14:33:22;8.07;;;4.22;;
75358;SDS011;64046;51.978;5.934;2024-01-30T14:35:52;7.55;;;3.90;;
75358;SDS011;64046;51.978;5.934;2024-01-30T14:38:23;10.27;;;3.83;;
75358;SDS011;64046;51.978;5.934;2024-01-30T14:40:55;10.75;;;3.67;;
75358;SDS011;64046;51.978;5.934;2024-01-30T14:43:24;4.65;;;3.25;;
75358;SDS011;64046;51.978;5.934;2024-01-30T14:45:57;7.22;;;3.47;;
75358;SDS011;64046;51.978;5.934;2024-01-30T14:48:26;7.82;;;3.47;;
75358;SDS011;64046;51.978;5.934;2024-01-30T14:50:56;6.55;;;3.20;;
75358;SDS011;64046;51.978;5.934;2024-01-30T14:53:25;7.05;;;3.63;;
75358;SDS011;64046;51.978;5.934;2024-01-30T14:55:56;8.95;;;3.58;;
75358;SDS011;64046;51.978;5.934;2024-01-30T14:58:25;7.15;;;3.25;;
75358;SDS011;64046;51.978;5.934;2024-01-30T15:03:44;7.93;;;3.47;;
75358;SDS011;64046;51.978;5.934;2024-01-30T15:06:17;9.77;;;3.67;;